| time (UTC) | temp C | wind direction | speed KPH | gust KPH | rain 1hr cm | rain 24hr cm | rain mn cm | humidity % | barometer mb |
| 20260906230624 | 14 | 157 | 11.3 | 12.9 | 0.00 | 0.00 | 0.00 | 39 | 1034.1 |
| 20260906230119 | 14 | 187 | 14.5 | 16.1 | 0.00 | 0.00 | 0.00 | 38 | 1034.5 |
| 20260906225618 | 14 | 176 | 14.5 | 24.1 | 0.00 | 0.00 | 0.00 | 37 | 1034.4 |
| 20260906225115 | 15 | 159 | 16.1 | 17.7 | 0.00 | 0.00 | 0.00 | 38 | 1034.4 |
| 20260906224614 | 15 | 150 | 19.3 | 24.1 | 0.00 | 0.00 | 0.00 | 37 | 1034.4 |
| 20260906224111 | 14 | 133 | 22.5 | 24.1 | 0.00 | 0.00 | 0.00 | 37 | 1033.9 |
| 20260906223607 | 15 | 147 | 29.0 | 32.2 | 0.00 | 0.00 | 0.00 | 36 | 1033.9 |
| 20260906223106 | 14 | 166 | 14.5 | 14.5 | 0.00 | 0.00 | 0.00 | 39 | 1034.1 |
| 20260906222606 | 14 | 148 | 14.5 | 16.1 | 0.00 | 0.00 | 0.00 | 38 | 1034.2 |
| 20260906222104 | 14 | 160 | 25.7 | 29.0 | 0.00 | 0.00 | 0.00 | 37 | 1034.7 |
| 20260906221602 | 15 | 158 | 14.5 | 17.7 | 0.00 | 0.00 | 0.00 | 37 | 1034.4 |
| 20260906221057 | 14 | 139 | 30.6 | 35.4 | 0.00 | 0.00 | 0.00 | 36 | 1034.4 |
| 20260906220552 | 15 | 148 | 32.2 | 38.6 | 0.00 | 0.00 | 0.00 | 37 | 1034.5 |
| 20260906220048 | 15 | 144 | 32.2 | 37.0 | 0.00 | 0.00 | 0.00 | 35 | 1034.4 |
| 20260906215546 | 15 | 153 | 30.6 | 35.4 | 0.00 | 0.00 | 0.00 | 36 | 1034.4 |
| 20260906215045 | 16 | 170 | 32.2 | 35.4 | 0.00 | 0.00 | 0.00 | 34 | 1034.5 |
| 20260906214544 | 15 | 153 | 16.1 | 17.7 | 0.00 | 0.00 | 0.00 | 36 | 1034.8 |
| 20260906214039 | 15 | 154 | 27.4 | 29.0 | 0.00 | 0.00 | 0.00 | 35 | 1034.7 |
| 20260906213538 | 15 | 149 | 27.4 | 32.2 | 0.00 | 0.00 | 0.00 | 36 | 1034.8 |
| 20260906213033 | 15 | 159 | 24.1 | 33.8 | 0.00 | 0.00 | 0.00 | 36 | 1034.8 |
| 20260906212526 | 15 | 141 | 16.1 | 16.1 | 0.00 | 0.00 | 0.00 | 37 | 1035.0 |
| 20260906212022 | 14 | 126 | 17.7 | 17.7 | 0.00 | 0.00 | 0.00 | 38 | 1035.0 |
| 20260906211515 | 15 | 157 | 11.3 | 12.9 | 0.00 | 0.00 | 0.00 | 35 | 1035.0 |
| 20260906211011 | 15 | 148 | 17.7 | 17.7 | 0.00 | 0.00 | 0.00 | 35 | 1035.3 |
| 20260906210506 | 14 | 256 | 12.9 | 14.5 | 0.00 | 0.00 | 0.00 | 38 | 1035.4 |
| 20260906210006 | 15 | 151 | 12.9 | 14.5 | 0.00 | 0.00 | 0.00 | 39 | 1035.0 |
| 20260906205502 | 14 | 162 | 22.5 | 25.7 | 0.00 | 0.00 | 0.00 | 38 | 1035.1 |
| 20260906204958 | 14 | 157 | 19.3 | 22.5 | 0.00 | 0.00 | 0.00 | 39 | 1035.1 |
| 20260906204457 | 15 | 148 | 19.3 | 20.9 | 0.00 | 0.00 | 0.00 | 37 | 1035.4 |
| 20260906203956 | 14 | 202 | 12.9 | 16.1 | 0.00 | 0.00 | 0.00 | 41 | 1035.1 |
| 20260906203452 | 14 | 205 | 9.7 | 11.3 | 0.00 | 0.00 | 0.00 | 40 | 1035.3 |
| 20260906202949 | 15 | 157 | 14.5 | 16.1 | 0.00 | 0.00 | 0.00 | 44 | 1035.4 |
| 20260906202448 | 15 | 174 | 16.1 | 16.1 | 0.00 | 0.00 | 0.00 | 38 | 1035.3 |
| 20260906201943 | 14 | 165 | 9.7 | 11.3 | 0.00 | 0.00 | 0.00 | 41 | 1035.5 |
| 20260906201438 | 13 | 149 | 16.1 | 17.7 | 0.00 | 0.00 | 0.00 | 41 | 1035.3 |
| 20260906200932 | 13 | 173 | 11.3 | 14.5 | 0.00 | 0.00 | 0.00 | 48 | 1035.5 |
| 20260906200429 | 13 | 196 | 11.3 | 11.3 | 0.00 | 0.00 | 0.00 | 56 | 1035.5 |
| 20260906195929 | 13 | 233 | 16.1 | 16.1 | 0.00 | 0.00 | 0.00 | 54 | 1035.4 |
| 20260906195425 | 13 | 152 | 22.5 | 24.1 | 0.00 | 0.18 | 0.18 | 43 | 1035.4 |
| 20260906194921 | 13 | 149 | 24.1 | 25.7 | 0.00 | 0.18 | 0.18 | 44 | 1035.5 |
| 20260906194417 | 13 | 287 | 4.8 | 9.7 | 0.00 | 0.18 | 0.18 | 47 | 1035.4 |
| 20260906193912 | 13 | 169 | 11.3 | 11.3 | 0.00 | 0.18 | 0.18 | 52 | 1035.4 |
| 20260906193406 | 13 | 224 | 8.0 | 9.7 | 0.00 | 0.18 | 0.18 | 51 | 1035.8 |
| 20260906192903 | 13 | 193 | 4.8 | 4.8 | 0.00 | 0.18 | 0.18 | 52 | 1035.5 |
| 20260906192402 | 13 | 158 | 9.7 | 11.3 | 0.00 | 0.18 | 0.18 | 53 | 1036.0 |
| 20260906191901 | 13 | 239 | 9.7 | 12.9 | 0.00 | 0.18 | 0.18 | 55 | 1035.3 |
| 20260906191356 | 12 | 168 | 8.0 | 9.7 | 0.00 | 0.18 | 0.18 | 58 | 1035.7 |
| 20260906190855 | 13 | 196 | 14.5 | 14.5 | 0.00 | 0.18 | 0.18 | 56 | 1036.0 |
| 20260906190349 | 13 | 80 | 0.0 | 0.0 | 0.00 | 0.18 | 0.18 | 58 | 1035.7 |
| 20260906185844 | 12 | 91 | 3.2 | 3.2 | 0.00 | 0.18 | 0.18 | 56 | 1035.7 |
| 20260906185343 | 13 | 157 | 12.9 | 12.9 | 0.13 | 0.18 | 0.18 | 58 | 1036.0 |
| 20260906184843 | 12 | 240 | 8.0 | 9.7 | 0.13 | 0.18 | 0.18 | 59 | 1036.1 |
| 20260906184338 | 13 | 61 | 0.0 | 0.0 | 0.00 | 0.15 | 0.15 | 56 | 1035.7 |
| 20260906183833 | 13 | 203 | 4.8 | 8.0 | 0.00 | 0.15 | 0.15 | 57 | 1036.3 |
| 20260906183330 | 12 | 250 | 4.8 | 4.8 | 0.00 | 0.15 | 0.15 | 57 | 1035.8 |
| 20260906182829 | 11 | 326 | 4.8 | 4.8 | 0.00 | 0.15 | 0.15 | 60 | 1035.8 |
| 20260906182325 | 12 | 336 | 11.3 | 12.9 | 0.00 | 0.15 | 0.15 | 60 | 1036.0 |
| 20260906181820 | 13 | 254 | 8.0 | 8.0 | 0.00 | 0.15 | 0.15 | 58 | 1036.3 |
| 20260906181317 | 11 | 154 | 6.4 | 9.7 | 0.00 | 0.15 | 0.15 | 60 | 1036.4 |
| 20260906180812 | 11 | 276 | 11.3 | 11.3 | 0.00 | 0.15 | 0.15 | 60 | 1036.3 |
| 20260906180312 | 11 | 321 | 11.3 | 12.9 | 0.00 | 0.15 | 0.15 | 62 | 1036.6 |
| 20260906175809 | 11 | 295 | 16.1 | 16.1 | 0.00 | 0.15 | 0.15 | 61 | 1036.7 |
| 20260906175306 | 11 | 340 | 11.3 | 12.9 | 0.00 | 0.15 | 0.15 | 61 | 1036.9 |
| 20260906174804 | 11 | 336 | 14.5 | 14.5 | 0.00 | 0.15 | 0.15 | 61 | 1036.6 |
| 20260906174303 | 12 | 162 | 11.3 | 12.9 | 0.00 | 0.15 | 0.15 | 60 | 1036.6 |
| 20260906173758 | 12 | 19 | 3.2 | 8.0 | 0.00 | 0.15 | 0.15 | 59 | 1037.1 |
| 20260906173254 | 12 | 125 | 8.0 | 9.7 | 0.00 | 0.15 | 0.15 | 57 | 1037.0 |
| 20260906172754 | 12 | 120 | 0.0 | 1.6 | 0.18 | 0.15 | 0.15 | 56 | 1037.1 |
| 20260906172250 | 12 | 116 | 1.6 | 1.6 | 0.18 | 0.15 | 0.15 | 57 | 1037.0 |
| 20260906171750 | 12 | 185 | 6.4 | 11.3 | 0.00 | 0.13 | 0.13 | 60 | 1037.1 |
| 20260906171245 | 12 | 152 | 8.0 | 11.3 | 0.00 | 0.13 | 0.13 | 58 | 1037.1 |
| 20260906170741 | 11 | 134 | 8.0 | 9.7 | 0.00 | 0.13 | 0.13 | 59 | 1037.0 |
| 20260906170236 | 11 | 166 | 6.4 | 8.0 | 0.00 | 0.13 | 0.13 | 61 | 1037.1 |
| 20260906165732 | 11 | 227 | 6.4 | 8.0 | 0.00 | 0.13 | 0.13 | 60 | 1037.3 |
| 20260906165226 | 11 | 267 | 9.7 | 9.7 | 0.00 | 0.13 | 0.13 | 65 | 1037.3 |
| 20260906164721 | 11 | 277 | 6.4 | 8.0 | 0.00 | 0.13 | 0.13 | 64 | 1037.1 |
| 20260906164216 | 12 | 122 | 1.6 | 1.6 | 0.00 | 0.13 | 0.13 | 59 | 1037.0 |
| 20260906163712 | 11 | 131 | 6.4 | 8.0 | 0.00 | 0.13 | 0.13 | 62 | 1037.3 |
| 20260906163208 | 11 | 155 | 9.7 | 11.3 | 0.00 | 0.13 | 0.13 | 63 | 1037.1 |
| 20260906162704 | 11 | 153 | 9.7 | 11.3 | 0.00 | 0.13 | 0.13 | 67 | 1037.1 |
| 20260906162204 | 10 | 92 | 0.0 | 0.0 | 0.00 | 0.13 | 0.13 | 65 | 1037.1 |
| 20260906161659 | 10 | 242 | 3.2 | 3.2 | 0.00 | 0.13 | 0.13 | 66 | 1037.1 |
| 20260906161158 | 10 | 171 | 6.4 | 8.0 | 0.00 | 0.13 | 0.13 | 67 | 1037.3 |
| 20260906160657 | 10 | 167 | 6.4 | 8.0 | 0.00 | 0.13 | 0.13 | 66 | 1037.3 |
| 20260906160156 | 10 | 171 | 8.0 | 9.7 | 0.00 | 0.13 | 0.13 | 68 | 1037.1 |
| 20260906155654 | 10 | 171 | 6.4 | 8.0 | 0.00 | 0.13 | 0.13 | 65 | 1037.1 |
| 20260906155149 | 10 | 168 | 8.0 | 8.0 | 0.00 | 0.13 | 0.13 | 65 | 1037.0 |
| 20260906154645 | 10 | 153 | 3.2 | 3.2 | 0.00 | 0.13 | 0.13 | 69 | 1037.0 |
| 20260906154144 | 10 | 167 | 6.4 | 8.0 | 0.00 | 0.13 | 0.13 | 68 | 1036.9 |
| 20260906153643 | 10 | 165 | 3.2 | 3.2 | 0.00 | 0.13 | 0.13 | 66 | 1036.6 |
| 20260906153138 | 10 | 172 | 4.8 | 4.8 | 0.00 | 0.13 | 0.13 | 66 | 1036.9 |
| 20260906152633 | 10 | 179 | 4.8 | 4.8 | 0.00 | 0.13 | 0.13 | 67 | 1037.0 |
| 20260906152126 | 10 | 205 | 8.0 | 9.7 | 0.00 | 0.13 | 0.13 | 67 | 1036.9 |
| 20260906151621 | 10 | 174 | 6.4 | 8.0 | 0.00 | 0.13 | 0.13 | 66 | 1036.9 |
| 20260906151118 | 10 | 163 | 3.2 | 4.8 | 0.00 | 0.13 | 0.13 | 67 | 1036.9 |
| 20260906150613 | 9 | 159 | 0.0 | 1.6 | 0.00 | 0.13 | 0.13 | 67 | 1036.7 |
| 20260906150108 | 8 | 162 | 3.2 | 3.2 | 0.00 | 0.13 | 0.13 | 70 | 1037.1 |
| 20260906145606 | 9 | 158 | 4.8 | 4.8 | 0.00 | 0.13 | 0.13 | 71 | 1036.7 |
| 20260906145101 | 10 | 140 | 0.0 | 0.0 | 0.00 | 0.13 | 0.13 | 68 | 1036.7 |
| 20260906144555 | 11 | 131 | 0.0 | 0.0 | 0.00 | 0.13 | 0.13 | 64 | 1036.7 |
| 20260906144051 | 10 | 143 | 0.0 | 0.0 | 0.00 | 0.13 | 0.13 | 65 | 1036.9 |
| 20260906143546 | 9 | 218 | 0.0 | 0.0 | 0.18 | 0.13 | 0.13 | 67 | 1036.9 |
| 20260906143043 | 9 | 305 | 1.6 | 1.6 | 0.18 | 0.13 | 0.13 | 66 | 1036.7 |
| 20260906142542 | 10 | 25 | 0.0 | 0.0 | 0.00 | 0.10 | 0.10 | 67 | 1036.6 |
| 20260906142038 | 10 | 64 | 0.0 | 0.0 | 0.00 | 0.10 | 0.10 | 66 | 1036.7 |
| 20260906141536 | 8 | 31 | 0.0 | 0.0 | 0.00 | 0.10 | 0.10 | 67 | 1036.3 |
| 20260906141032 | 8 | 299 | 0.0 | 1.6 | 0.00 | 0.10 | 0.10 | 67 | 1036.7 |
| 20260906140531 | 8 | 246 | 0.0 | 1.6 | 0.00 | 0.10 | 0.10 | 68 | 1036.6 |
| 20260906140031 | 8 | 246 | 3.2 | 3.2 | 0.00 | 0.10 | 0.10 | 67 | 1036.9 |
| 20260906135528 | 10 | 148 | 0.0 | 0.0 | 0.00 | 0.10 | 0.10 | 68 | 1037.0 |
| 20260906135024 | 9 | 99 | 1.6 | 3.2 | 0.00 | 0.10 | 0.10 | 70 | 1036.6 |
| 20260906134519 | 8 | 87 | 4.8 | 4.8 | 0.00 | 0.10 | 0.10 | 72 | 1036.3 |
| 20260906134014 | 8 | 79 | 8.0 | 8.0 | 0.00 | 0.10 | 0.10 | 74 | 1036.3 |
| 20260906133510 | 8 | 58 | 3.2 | 3.2 | 0.00 | 0.10 | 0.10 | 68 | 1036.3 |
| 20260906133005 | 8 | 35 | 1.6 | 1.6 | 0.00 | 0.10 | 0.10 | 67 | 1036.3 |
| 20260906132500 | 7 | 36 | 1.6 | 1.6 | 0.00 | 0.10 | 0.10 | 69 | 1036.1 |
| 20260906131955 | 8 | 25 | 1.6 | 1.6 | 0.00 | 0.10 | 0.10 | 69 | 1036.0 |
| 20260906131451 | 8 | 339 | 0.0 | 0.0 | 0.00 | 0.10 | 0.10 | 69 | 1036.3 |
| 20260906130946 | 8 | 278 | 0.0 | 0.0 | 0.00 | 0.10 | 0.10 | 69 | 1036.1 |
| 20260906130445 | 8 | 271 | 0.0 | 0.0 | 0.00 | 0.10 | 0.10 | 69 | 1036.0 |
| 20260906125940 | 8 | 272 | 1.6 | 1.6 | 0.00 | 0.10 | 0.10 | 70 | 1036.0 |
| 20260906125438 | 8 | 237 | 1.6 | 1.6 | 0.00 | 0.10 | 0.10 | 73 | 1035.8 |
| 20260906124937 | 8 | 205 | 0.0 | 0.0 | 0.00 | 0.10 | 0.10 | 75 | 1035.8 |
| 20260906124433 | 8 | 122 | 3.2 | 3.2 | 0.00 | 0.10 | 0.10 | 76 | 1036.0 |
| 20260906123933 | 7 | 127 | 0.0 | 0.0 | 0.00 | 0.10 | 0.10 | 75 | 1035.8 |
| 20260906123433 | 7 | 118 | 0.0 | 0.0 | 0.00 | 0.10 | 0.10 | 78 | 1035.8 |
| 20260906122933 | 7 | 165 | 0.0 | 0.0 | 0.00 | 0.10 | 0.10 | 77 | 1035.8 |
| 20260906122427 | 8 | 154 | 0.0 | 0.0 | 0.00 | 0.10 | 0.10 | 75 | 1036.0 |
| 20260906121925 | 8 | 147 | 1.6 | 1.6 | 0.00 | 0.10 | 0.10 | 75 | 1036.1 |
| 20260906121420 | 8 | 126 | 4.8 | 4.8 | 0.00 | 0.10 | 0.10 | 74 | 1035.8 |
| 20260906120917 | 8 | 155 | 1.6 | 1.6 | 0.00 | 0.10 | 0.10 | 75 | 1036.0 |
| 20260906120412 | 7 | 158 | 0.0 | 0.0 | 0.00 | 0.10 | 0.10 | 75 | 1036.0 |
| 20260906115908 | 7 | 269 | 0.0 | 0.0 | 0.00 | 0.10 | 0.10 | 76 | 1036.0 |
| 20260906115403 | 7 | 277 | 0.0 | 0.0 | 0.00 | 0.10 | 0.10 | 69 | 1035.7 |
| 20260906114902 | 7 | 279 | 1.6 | 1.6 | 0.00 | 0.10 | 0.10 | 68 | 1036.3 |
| 20260906114357 | 7 | 278 | 4.8 | 4.8 | 0.13 | 0.10 | 0.10 | 68 | 1036.1 |
| 20260906113853 | 7 | 278 | 4.8 | 4.8 | 0.13 | 0.10 | 0.10 | 69 | 1036.4 |
| 20260906113352 | 7 | 280 | 3.2 | 3.2 | 0.00 | 0.08 | 0.08 | 75 | 1036.4 |
| 20260906112847 | 7 | 282 | 1.6 | 3.2 | 0.00 | 0.08 | 0.08 | 74 | 1036.3 |
| 20260906112343 | 7 | 287 | 3.2 | 3.2 | 0.00 | 0.08 | 0.08 | 72 | 1036.3 |
| 20260906111844 | 8 | 275 | 3.2 | 3.2 | 0.00 | 0.08 | 0.08 | 75 | 1036.0 |
| 20260906111343 | 8 | 286 | 3.2 | 3.2 | 0.00 | 0.08 | 0.08 | 75 | 1036.1 |
| 20260906110838 | 8 | 275 | 3.2 | 3.2 | 0.00 | 0.08 | 0.08 | 75 | 1036.3 |
| 20260906110334 | 8 | 238 | 3.2 | 3.2 | 0.00 | 0.08 | 0.08 | 74 | 1036.3 |
| 20260906105833 | 8 | 209 | 0.0 | 0.0 | 0.00 | 0.08 | 0.08 | 75 | 1036.0 |
| 20260906105329 | 8 | 247 | 0.0 | 0.0 | 0.00 | 0.08 | 0.08 | 75 | 1036.0 |
| 20260906104825 | 8 | 249 | 1.6 | 1.6 | 0.00 | 0.08 | 0.08 | 74 | 1036.1 |
| 20260906104323 | 8 | 195 | 1.6 | 3.2 | 0.00 | 0.08 | 0.08 | 75 | 1036.4 |
| 20260906103822 | 8 | 167 | 3.2 | 3.2 | 0.00 | 0.08 | 0.08 | 75 | 1036.3 |
| 20260906103320 | 8 | 155 | 4.8 | 4.8 | 0.00 | 0.08 | 0.08 | 74 | 1036.1 |
| 20260906102817 | 9 | 170 | 4.8 | 8.0 | 0.00 | 0.08 | 0.08 | 73 | 1036.0 |
| 20260906102315 | 9 | 160 | 4.8 | 4.8 | 0.00 | 0.08 | 0.08 | 72 | 1036.1 |
| 20260906101811 | 9 | 149 | 8.0 | 8.0 | 0.00 | 0.08 | 0.08 | 72 | 1036.1 |
| 20260906101306 | 9 | 153 | 6.4 | 8.0 | 0.00 | 0.08 | 0.08 | 72 | 1036.3 |
| 20260906100801 | 9 | 152 | 4.8 | 4.8 | 0.00 | 0.08 | 0.08 | 72 | 1035.8 |
| 20260906100301 | 9 | 146 | 8.0 | 8.0 | 0.00 | 0.08 | 0.08 | 72 | 1036.0 |
| 20260906095756 | 9 | 150 | 8.0 | 9.7 | 0.00 | 0.08 | 0.08 | 71 | 1036.0 |
| 20260906095251 | 9 | 157 | 8.0 | 8.0 | 0.00 | 0.08 | 0.08 | 71 | 1036.1 |
| 20260906094750 | 9 | 145 | 8.0 | 8.0 | 0.00 | 0.08 | 0.08 | 71 | 1036.0 |
| 20260906094245 | 9 | 151 | 8.0 | 8.0 | 0.00 | 0.08 | 0.08 | 72 | 1036.3 |
| 20260906093742 | 9 | 149 | 8.0 | 9.7 | 0.00 | 0.08 | 0.08 | 72 | 1036.4 |
| 20260906093237 | 9 | 153 | 8.0 | 9.7 | 0.18 | 0.08 | 0.08 | 71 | 1036.0 |
| 20260906092732 | 9 | 145 | 8.0 | 9.7 | 0.18 | 0.08 | 0.08 | 72 | 1036.1 |
| 20260906092232 | 9 | 152 | 9.7 | 9.7 | 0.00 | 0.05 | 0.05 | 72 | 1035.8 |
| 20260906091728 | 8 | 153 | 9.7 | 9.7 | 0.00 | 0.05 | 0.05 | 72 | 1036.0 |
| 20260906091224 | 8 | 146 | 11.3 | 11.3 | 0.00 | 0.05 | 0.05 | 72 | 1036.1 |
| 20260906090720 | 8 | 134 | 11.3 | 11.3 | 0.00 | 0.05 | 0.05 | 72 | 1036.1 |
| 20260906090219 | 8 | 140 | 12.9 | 12.9 | 0.00 | 0.05 | 0.05 | 73 | 1036.3 |
| 20260906085719 | 8 | 152 | 11.3 | 11.3 | 0.00 | 0.05 | 0.05 | 74 | 1036.3 |
| 20260906085218 | 8 | 144 | 9.7 | 11.3 | 0.00 | 0.05 | 0.05 | 73 | 1036.4 |
| 20260906084713 | 8 | 148 | 11.3 | 11.3 | 0.00 | 0.05 | 0.05 | 71 | 1036.4 |
| 20260906084213 | 8 | 119 | 9.7 | 9.7 | 0.00 | 0.05 | 0.05 | 72 | 1036.3 |
| 20260906083708 | 9 | 131 | 9.7 | 11.3 | 0.00 | 0.05 | 0.05 | 71 | 1036.3 |
| 20260906083203 | 9 | 144 | 11.3 | 11.3 | 0.00 | 0.05 | 0.05 | 71 | 1036.1 |
| 20260906082658 | 9 | 156 | 12.9 | 12.9 | 0.00 | 0.05 | 0.05 | 72 | 1036.3 |
| 20260906082153 | 9 | 154 | 9.7 | 11.3 | 0.00 | 0.05 | 0.05 | 72 | 1036.3 |
| 20260906081649 | 9 | 143 | 9.7 | 11.3 | 0.00 | 0.05 | 0.05 | 71 | 1036.3 |
| 20260906081144 | 9 | 144 | 9.7 | 11.3 | 0.00 | 0.05 | 0.05 | 71 | 1036.1 |
| 20260906080640 | 9 | 133 | 9.7 | 9.7 | 0.00 | 0.05 | 0.05 | 71 | 1036.3 |
| 20260906080136 | 9 | 133 | 8.0 | 8.0 | 0.00 | 0.05 | 0.05 | 71 | 1036.1 |
| 20260906075636 | 8 | 139 | 6.4 | 8.0 | 0.00 | 0.05 | 0.05 | 72 | 1036.3 |
| 20260906075130 | 8 | 102 | 4.8 | 4.8 | 0.00 | 0.05 | 0.05 | 73 | 1036.4 |
| 20260906074626 | 9 | 105 | 8.0 | 8.0 | 0.00 | 0.05 | 0.05 | 71 | 1036.1 |
| 20260906074125 | 9 | 126 | 8.0 | 9.7 | 0.00 | 0.05 | 0.05 | 71 | 1036.3 |
| 20260906073620 | 9 | 144 | 8.0 | 8.0 | 0.00 | 0.05 | 0.05 | 71 | 1036.3 |
| 20260906073115 | 9 | 151 | 8.0 | 8.0 | 0.00 | 0.05 | 0.05 | 71 | 1036.7 |
| 20260906072610 | 9 | 144 | 8.0 | 9.7 | 0.00 | 0.05 | 0.05 | 71 | 1036.7 |
| 20260906072107 | 8 | 136 | 8.0 | 9.7 | 0.00 | 0.05 | 0.05 | 72 | 1036.4 |
| 20260906071603 | 8 | 103 | 6.4 | 8.0 | 0.00 | 0.05 | 0.05 | 73 | 1036.6 |
| 20260906071103 | 8 | 122 | 8.0 | 8.0 | 0.00 | 0.05 | 0.05 | 73 | 1036.3 |
| 20260906070559 | 9 | 134 | 9.7 | 9.7 | 0.13 | 0.05 | 0.05 | 70 | 1036.6 |
| 20260906070054 | 9 | 132 | 8.0 | 9.7 | 0.13 | 0.05 | 0.05 | 70 | 1036.6 |
| 20260906065554 | 9 | 135 | 8.0 | 9.7 | 0.00 | 0.03 | 0.03 | 70 | 1036.4 |
| 20260906065050 | 9 | 133 | 9.7 | 9.7 | 0.00 | 0.03 | 0.03 | 71 | 1036.4 |
| 20260906064546 | 9 | 135 | 9.7 | 9.7 | 0.00 | 0.03 | 0.03 | 70 | 1036.4 |
| 20260906064040 | 9 | 130 | 11.3 | 12.9 | 0.00 | 0.03 | 0.03 | 71 | 1036.7 |
| 20260906063535 | 8 | 131 | 14.5 | 14.5 | 0.00 | 0.03 | 0.03 | 73 | 1036.6 |
| 20260906063032 | 9 | 129 | 11.3 | 12.9 | 0.00 | 0.03 | 0.03 | 72 | 1036.6 |
| 20260906062526 | 8 | 126 | 12.9 | 14.5 | 0.00 | 0.03 | 0.03 | 72 | 1036.9 |
| 20260906062021 | 8 | 123 | 12.9 | 12.9 | 0.00 | 0.03 | 0.03 | 75 | 1036.7 |
| 20260906061517 | 8 | 128 | 16.1 | 16.1 | 0.00 | 0.03 | 0.03 | 74 | 1036.6 |
| 20260906061016 | 10 | 111 | 11.3 | 11.3 | 0.00 | 0.03 | 0.03 | 67 | 1036.6 |
| 20260906060513 | 9 | 139 | 3.2 | 3.2 | 0.00 | 0.03 | 0.03 | 68 | 1036.6 |
| 20260906060009 | 8 | 145 | 3.2 | 3.2 | 0.00 | 0.03 | 0.03 | 69 | 1036.6 |
| 20260906055505 | 9 | 168 | 1.6 | 1.6 | 0.00 | 0.03 | 0.03 | 69 | 1036.6 |
| 20260906055001 | 9 | 178 | 1.6 | 1.6 | 0.00 | 0.03 | 0.03 | 70 | 1036.7 |
| 20260906054500 | 8 | 216 | 0.0 | 0.0 | 0.00 | 0.03 | 0.03 | 70 | 1036.7 |
| 20260906053956 | 8 | 157 | 0.0 | 0.0 | 0.00 | 0.03 | 0.03 | 71 | 1036.9 |
| 20260906053452 | 8 | 181 | 0.0 | 0.0 | 0.00 | 0.03 | 0.03 | 72 | 1036.6 |
| 20260906052948 | 8 | 170 | 0.0 | 0.0 | 0.00 | 0.03 | 0.03 | 72 | 1036.4 |
| 20260906052444 | 8 | 140 | 1.6 | 1.6 | 0.00 | 0.03 | 0.03 | 74 | 1036.7 |
| 20260906051940 | 8 | 131 | 6.4 | 8.0 | 0.00 | 0.03 | 0.03 | 75 | 1037.1 |
| 20260906051436 | 8 | 126 | 8.0 | 9.7 | 0.00 | 0.03 | 0.03 | 78 | 1036.9 |
| 20260906050931 | 7 | 98 | 9.7 | 9.7 | 0.00 | 0.03 | 0.03 | 81 | 1037.1 |
| 20260906050431 | 7 | 85 | 9.7 | 11.3 | 0.00 | 0.03 | 0.03 | 81 | 1037.1 |
| 20260906045930 | 7 | 97 | 11.3 | 11.3 | 0.00 | 0.03 | 0.03 | 84 | 1037.1 |
| 20260906045428 | 7 | 99 | 11.3 | 11.3 | 0.00 | 0.03 | 0.03 | 85 | 1037.0 |
| 20260906044926 | 7 | 81 | 12.9 | 14.5 | 0.00 | 0.03 | 0.03 | 84 | 1037.3 |
| 20260906044426 | 7 | 101 | 9.7 | 11.3 | 0.00 | 0.03 | 0.03 | 85 | 1037.3 |
| 20260906043921 | 7 | 90 | 14.5 | 14.5 | 0.18 | 0.03 | 0.03 | 84 | 1037.4 |
| 20260906043417 | 6 | 146 | 9.7 | 9.7 | 0.18 | 0.03 | 0.03 | 88 | 1037.4 |
| 20260906042912 | 7 | 117 | 9.7 | 9.7 | 0.00 | 0.00 | 0.00 | 87 | 1037.4 |
| 20260906042411 | 7 | 82 | 14.5 | 14.5 | 0.00 | 0.00 | 0.00 | 87 | 1037.4 |
| 20260906041906 | 6 | 72 | 12.9 | 12.9 | 0.00 | 0.00 | 0.00 | 87 | 1037.6 |
| 20260906041403 | 6 | 61 | 11.3 | 12.9 | 0.00 | 0.00 | 0.00 | 87 | 1037.3 |
| 20260906040902 | 6 | 62 | 11.3 | 11.3 | 0.00 | 0.00 | 0.00 | 90 | 1037.7 |
| 20260906040358 | 6 | 59 | 9.7 | 9.7 | 0.00 | 0.00 | 0.00 | 90 | 1037.7 |
| 20260906035853 | 6 | 124 | 11.3 | 11.3 | 0.00 | 0.00 | 0.00 | 91 | 1037.7 |
| 20260906035348 | 6 | 134 | 22.5 | 24.1 | 0.00 | 0.00 | 0.00 | 97 | 1037.6 |
| 20260906034844 | 6 | 138 | 27.4 | 29.0 | 0.00 | 0.00 | 0.00 | 89 | 1037.9 |
| 20260906034344 | 7 | 141 | 22.5 | 25.7 | 0.00 | 0.00 | 0.00 | 85 | 1037.7 |
| 20260906033840 | 7 | 117 | 14.5 | 14.5 | 0.00 | 0.00 | 0.00 | 86 | 1037.9 |
| 20260906033339 | 7 | 67 | 9.7 | 9.7 | 0.00 | 0.00 | 0.00 | 85 | 1037.4 |
| 20260906032835 | 7 | 59 | 12.9 | 12.9 | 0.00 | 0.00 | 0.00 | 84 | 1037.7 |
| 20260906032331 | 7 | 67 | 17.7 | 20.9 | 0.00 | 0.00 | 0.00 | 85 | 1037.4 |
| 20260906031826 | 6 | 63 | 17.7 | 20.9 | 0.00 | 0.00 | 0.00 | 88 | 1037.1 |
| 20260906031321 | 6 | 71 | 19.3 | 22.5 | 0.00 | 0.00 | 0.00 | 88 | 1037.3 |
| 20260906030822 | 6 | 61 | 16.1 | 17.7 | 0.00 | 0.00 | 0.00 | 89 | 1036.9 |
| 20260906030317 | 7 | 57 | 14.5 | 16.1 | 0.00 | 0.00 | 0.00 | 86 | 1037.3 |
| 20260906025816 | 7 | 55 | 11.3 | 14.5 | 0.00 | 0.00 | 0.00 | 83 | 1037.0 |
| 20260906025311 | 7 | 58 | 11.3 | 12.9 | 0.00 | 0.00 | 0.00 | 80 | 1036.9 |
| 20260906024810 | 7 | 73 | 14.5 | 17.7 | 0.00 | 0.00 | 0.00 | 81 | 1036.9 |
| 20260906024309 | 7 | 53 | 11.3 | 12.9 | 0.00 | 0.00 | 0.00 | 74 | 1036.9 |
| 20260906023805 | 7 | 46 | 12.9 | 14.5 | 0.00 | 0.00 | 0.00 | 80 | 1037.1 |
| 20260906023300 | 6 | 3 | 22.5 | 24.1 | 0.00 | 0.00 | 0.00 | 84 | 1036.9 |
| 20260906022755 | 7 | 211 | 3.2 | 3.2 | 0.00 | 0.00 | 0.00 | 87 | 1037.4 |
| 20260906022251 | 8 | 242 | 14.5 | 14.5 | 0.00 | 0.00 | 0.00 | 74 | 1037.3 |
| 20260906021747 | 8 | 268 | 9.7 | 11.3 | 0.00 | 0.00 | 0.00 | 77 | 1036.9 |
| 20260906021245 | 8 | 273 | 14.5 | 14.5 | 0.00 | 0.00 | 0.00 | 79 | 1036.9 |
| 20260906020741 | 9 | 223 | 14.5 | 16.1 | 0.00 | 0.00 | 0.00 | 77 | 1036.9 |
| 20260906020240 | 9 | 236 | 14.5 | 14.5 | 0.00 | 0.00 | 0.00 | 72 | 1036.4 |
| 20260906015735 | 10 | 258 | 9.7 | 11.3 | 0.00 | 0.00 | 0.00 | 70 | 1036.9 |
| 20260906015233 | 10 | 238 | 8.0 | 9.7 | 0.00 | 0.00 | 0.00 | 67 | 1036.7 |
| 20260906014728 | 10 | 230 | 8.0 | 9.7 | 0.00 | 0.00 | 0.00 | 65 | 1036.1 |
| 20260906014224 | 11 | 237 | 6.4 | 8.0 | 0.00 | 0.00 | 0.00 | 61 | 1036.3 |
| 20260906013720 | 11 | 178 | 3.2 | 4.8 | 0.00 | 0.00 | 0.00 | 60 | 1036.1 |
| 20260906013220 | 11 | 174 | 3.2 | 3.2 | 0.00 | 0.00 | 0.00 | 59 | 1036.1 |
| 20260906012716 | 11 | 149 | 1.6 | 1.6 | 0.00 | 0.00 | 0.00 | 58 | 1036.1 |
| 20260906012215 | 12 | 249 | 0.0 | 0.0 | 0.00 | 0.00 | 0.00 | 56 | 1036.1 |
| 20260906011711 | 11 | 260 | 1.6 | 3.2 | 0.00 | 0.00 | 0.00 | 57 | 1036.0 |
| 20260906011205 | 12 | 247 | 0.0 | 0.0 | 0.00 | 0.00 | 0.00 | 57 | 1036.3 |
| 20260906010701 | 12 | 340 | 1.6 | 1.6 | 0.00 | 0.00 | 0.00 | 57 | 1036.6 |
| 20260906010157 | 12 | 298 | 0.0 | 0.0 | 0.00 | 0.00 | 0.00 | 56 | 1036.3 |
| 20260906005656 | 12 | 355 | 1.6 | 1.6 | 0.00 | 0.00 | 0.00 | 56 | 1036.7 |
| 20260906005156 | 12 | 312 | 4.8 | 4.8 | 0.00 | 0.00 | 0.00 | 56 | 1036.4 |
| 20260906004655 | 12 | 341 | 3.2 | 3.2 | 0.00 | 0.00 | 0.00 | 57 | 1036.6 |
| 20260906004150 | 12 | 291 | 4.8 | 4.8 | 0.00 | 0.00 | 0.00 | 57 | 1036.4 |
| 20260906003645 | 12 | 189 | 3.2 | 3.2 | 0.00 | 0.00 | 0.00 | 59 | 1036.0 |
| 20260906003141 | 11 | 168 | 6.4 | 8.0 | 0.00 | 0.00 | 0.00 | 57 | 1036.1 |
| 20260906002636 | 12 | 181 | 16.1 | 20.9 | 0.00 | 0.00 | 0.00 | 56 | 1036.3 |
| 20260906002130 | 12 | 145 | 12.9 | 16.1 | 0.00 | 0.00 | 0.00 | 48 | 1036.0 |
| 20260906001626 | 12 | 152 | 6.4 | 9.7 | 0.00 | 0.00 | 0.00 | 54 | 1036.3 |
| 20260906001125 | 11 | 93 | 3.2 | 4.8 | 0.00 | 0.00 | 0.00 | 57 | 1036.4 |
| 20260906000621 | 11 | 318 | 1.6 | 1.6 | 0.00 | 0.00 | 0.00 | 57 | 1036.6 |
| 20260906000117 | 11 | 20 | 4.8 | 4.8 | 0.00 | 0.00 | 0.00 | 64 | 1036.3 |
| 20260905235615 | 11 | 3 | 8.0 | 9.7 | 0.00 | 0.00 | 0.00 | 64 | 1036.3 |
| 20260905235111 | 11 | 19 | 6.4 | 8.0 | 0.00 | 0.00 | 0.00 | 64 | 1036.3 |
| 20260905234606 | 11 | 359 | 12.9 | 12.9 | 0.00 | 0.00 | 0.00 | 61 | 1036.3 |
| 20260905234101 | 11 | 353 | 11.3 | 14.5 | 0.00 | 0.00 | 0.00 | 63 | 1036.6 |
| 20260905233601 | 12 | 246 | 11.3 | 12.9 | 0.00 | 0.00 | 0.00 | 61 | 1036.6 |
| 20260905233056 | 12 | 244 | 14.5 | 16.1 | 0.00 | 0.00 | 0.00 | 51 | 1036.4 |
| 20260905232551 | 12 | 172 | 12.9 | 14.5 | 0.00 | 0.00 | 0.00 | 53 | 1036.0 |
| 20260905232047 | 12 | 152 | 16.1 | 17.7 | 0.00 | 0.00 | 0.00 | 50 | 1036.4 |
| 20260905231542 | 12 | 144 | 16.1 | 16.1 | 0.00 | 0.00 | 0.00 | 54 | 1036.3 |